sensor_id;sensor_type;location;lat;lon;timestamp;temperature;humidity
16485;DHT22;8353;47.856;12.344;2023-04-08T00:01:28;10.20;99.90
16485;DHT22;8353;47.856;12.344;2023-04-08T00:04:15;10.10;99.90
16485;DHT22;8353;47.856;12.344;2023-04-08T00:07:03;10.10;99.90
16485;DHT22;8353;47.856;12.344;2023-04-08T00:09:50;10.00;99.90
16485;DHT22;8353;47.856;12.344;2023-04-08T00:12:37;10.00;99.90
16485;DHT22;8353;47.856;12.344;2023-04-08T00:15:24;9.90;99.90
16485;DHT22;8353;47.856;12.344;2023-04-08T00:18:12;9.80;99.90
16485;DHT22;8353;47.856;12.344;2023-04-08T00:21:00;9.80;99.90
16485;DHT22;8353;47.856;12.344;2023-04-08T00:23:48;9.80;99.90
16485;DHT22;8353;47.856;12.344;2023-04-08T00:26:35;9.80;99.90
16485;DHT22;8353;47.856;12.344;2023-04-08T00:29:22;9.70;99.90
16485;DHT22;8353;47.856;12.344;2023-04-08T00:32:09;9.70;99.90
16485;DHT22;8353;47.856;12.344;2023-04-08T00:34:56;9.70;99.90
16485;DHT22;8353;47.856;12.344;2023-04-08T00:37:43;9.70;99.90
16485;DHT22;8353;47.856;12.344;2023-04-08T00:40:33;9.50;99.90
16485;DHT22;8353;47.856;12.344;2023-04-08T00:43:20;9.30;99.90
16485;DHT22;8353;47.856;12.344;2023-04-08T00:46:08;9.10;99.90
16485;DHT22;8353;47.856;12.344;2023-04-08T00:48:55;8.90;99.90
16485;DHT22;8353;47.856;12.344;2023-04-08T00:51:42;8.90;99.90
16485;DHT22;8353;47.856;12.344;2023-04-08T00:54:30;8.80;99.90
16485;DHT22;8353;47.856;12.344;2023-04-08T00:57:18;8.90;99.90
16485;DHT22;8353;47.856;12.344;2023-04-08T01:00:06;8.90;99.90
16485;DHT22;8353;47.856;12.344;2023-04-08T01:03:00;8.90;99.90
16485;DHT22;8353;47.856;12.344;2023-04-08T01:05:55;8.70;99.90
16485;DHT22;8353;47.856;12.344;2023-04-08T01:08:45;8.70;99.90
16485;DHT22;8353;47.856;12.344;2023-04-08T01:11:34;8.60;99.90
16485;DHT22;8353;47.856;12.344;2023-04-08T01:14:25;8.60;99.90
16485;DHT22;8353;47.856;12.344;2023-04-08T01:17:12;8.60;99.90
16485;DHT22;8353;47.856;12.344;2023-04-08T01:20:02;8.60;99.90
16485;DHT22;8353;47.856;12.344;2023-04-08T01:23:02;8.60;99.90
16485;DHT22;8353;47.856;12.344;2023-04-08T01:25:53;8.50;99.90
16485;DHT22;8353;47.856;12.344;2023-04-08T01:28:41;8.50;99.90
16485;DHT22;8353;47.856;12.344;2023-04-08T01:31:29;8.40;99.90
16485;DHT22;8353;47.856;12.344;2023-04-08T01:34:19;8.50;99.90
16485;DHT22;8353;47.856;12.344;2023-04-08T01:37:07;8.60;99.90
16485;DHT22;8353;47.856;12.344;2023-04-08T01:39:55;8.60;99.90
16485;DHT22;8353;47.856;12.344;2023-04-08T01:42:44;8.70;99.90
16485;DHT22;8353;47.856;12.344;2023-04-08T01:45:31;8.80;99.90
16485;DHT22;8353;47.856;12.344;2023-04-08T01:48:19;8.70;99.90
16485;DHT22;8353;47.856;12.344;2023-04-08T01:51:08;8.80;99.90
16485;DHT22;8353;47.856;12.344;2023-04-08T01:53:57;8.80;99.90
16485;DHT22;8353;47.856;12.344;2023-04-08T01:56:44;8.80;99.90
16485;DHT22;8353;47.856;12.344;2023-04-08T01:59:34;8.70;99.90
16485;DHT22;8353;47.856;12.344;2023-04-08T02:02:24;8.70;99.90
16485;DHT22;8353;47.856;12.344;2023-04-08T02:05:12;8.70;99.90
16485;DHT22;8353;47.856;12.344;2023-04-08T02:07:59;8.60;99.90
16485;DHT22;8353;47.856;12.344;2023-04-08T02:10:46;8.60;99.90
16485;DHT22;8353;47.856;12.344;2023-04-08T02:13:33;8.60;99.90
16485;DHT22;8353;47.856;12.344;2023-04-08T02:16:26;8.50;99.90
16485;DHT22;8353;47.856;12.344;2023-04-08T02:19:21;8.40;99.90
16485;DHT22;8353;47.856;12.344;2023-04-08T02:22:16;8.50;99.90
16485;DHT22;8353;47.856;12.344;2023-04-08T02:25:04;8.50;99.90
16485;DHT22;8353;47.856;12.344;2023-04-08T02:27:55;8.50;99.90
16485;DHT22;8353;47.856;12.344;2023-04-08T02:30:47;8.40;99.90
16485;DHT22;8353;47.856;12.344;2023-04-08T02:33:37;8.40;99.90
16485;DHT22;8353;47.856;12.344;2023-04-08T02:36:24;8.30;99.90
16485;DHT22;8353;47.856;12.344;2023-04-08T02:39:14;8.40;99.90
16485;DHT22;8353;47.856;12.344;2023-04-08T02:42:03;8.40;99.90
16485;DHT22;8353;47.856;12.344;2023-04-08T02:44:50;8.40;99.90
16485;DHT22;8353;47.856;12.344;2023-04-08T02:47:37;8.30;99.90
16485;DHT22;8353;47.856;12.344;2023-04-08T02:50:25;8.40;99.90
16485;DHT22;8353;47.856;12.344;2023-04-08T02:53:12;8.40;99.90
16485;DHT22;8353;47.856;12.344;2023-04-08T02:55:59;8.40;99.90
16485;DHT22;8353;47.856;12.344;2023-04-08T02:58:46;8.50;99.90
16485;DHT22;8353;47.856;12.344;2023-04-08T03:01:33;8.40;99.90
16485;DHT22;8353;47.856;12.344;2023-04-08T03:04:20;8.40;99.90
16485;DHT22;8353;47.856;12.344;2023-04-08T03:07:08;8.40;99.90
16485;DHT22;8353;47.856;12.344;2023-04-08T03:09:55;8.40;99.90
16485;DHT22;8353;47.856;12.344;2023-04-08T03:12:42;8.40;99.90
16485;DHT22;8353;47.856;12.344;2023-04-08T03:15:29;8.40;99.90
16485;DHT22;8353;47.856;12.344;2023-04-08T03:18:16;8.50;99.90
16485;DHT22;8353;47.856;12.344;2023-04-08T03:21:03;8.40;99.90
16485;DHT22;8353;47.856;12.344;2023-04-08T03:23:51;8.40;99.90
16485;DHT22;8353;47.856;12.344;2023-04-08T03:26:38;8.40;99.90
16485;DHT22;8353;47.856;12.344;2023-04-08T03:29:25;8.60;99.90
16485;DHT22;8353;47.856;12.344;2023-04-08T03:32:12;8.40;99.90
16485;DHT22;8353;47.856;12.344;2023-04-08T03:34:59;8.30;99.90
16485;DHT22;8353;47.856;12.344;2023-04-08T03:37:46;8.30;99.90
16485;DHT22;8353;47.856;12.344;2023-04-08T03:40:34;8.30;99.90
16485;DHT22;8353;47.856;12.344;2023-04-08T03:43:21;8.30;99.90
16485;DHT22;8353;47.856;12.344;2023-04-08T03:46:10;8.30;99.90
16485;DHT22;8353;47.856;12.344;2023-04-08T03:48:57;8.30;99.90
16485;DHT22;8353;47.856;12.344;2023-04-08T03:51:43;8.30;99.90
16485;DHT22;8353;47.856;12.344;2023-04-08T03:54:30;8.40;99.90
16485;DHT22;8353;47.856;12.344;2023-04-08T03:57:19;8.40;99.90
16485;DHT22;8353;47.856;12.344;2023-04-08T04:00:07;8.30;99.90
16485;DHT22;8353;47.856;12.344;2023-04-08T04:02:54;8.40;99.90
16485;DHT22;8353;47.856;12.344;2023-04-08T04:05:41;8.50;99.90
16485;DHT22;8353;47.856;12.344;2023-04-08T04:08:28;8.50;99.90
16485;DHT22;8353;47.856;12.344;2023-04-08T04:11:15;8.50;99.90
16485;DHT22;8353;47.856;12.344;2023-04-08T04:14:03;8.50;99.90
16485;DHT22;8353;47.856;12.344;2023-04-08T04:16:50;8.50;99.90
16485;DHT22;8353;47.856;12.344;2023-04-08T04:19:37;8.50;99.90
16485;DHT22;8353;47.856;12.344;2023-04-08T04:22:24;8.50;99.90
16485;DHT22;8353;47.856;12.344;2023-04-08T04:25:12;8.50;99.90
16485;DHT22;8353;47.856;12.344;2023-04-08T04:27:59;8.60;99.90
16485;DHT22;8353;47.856;12.344;2023-04-08T04:30:48;8.60;99.90
16485;DHT22;8353;47.856;12.344;2023-04-08T04:33:35;8.50;99.90
16485;DHT22;8353;47.856;12.344;2023-04-08T04:36:22;8.40;99.90
16485;DHT22;8353;47.856;12.344;2023-04-08T04:39:09;8.40;99.90
16485;DHT22;8353;47.856;12.344;2023-04-08T04:41:56;8.40;99.90
16485;DHT22;8353;47.856;12.344;2023-04-08T04:44:43;8.40;99.90
16485;DHT22;8353;47.856;12.344;2023-04-08T04:47:31;8.50;99.90
16485;DHT22;8353;47.856;12.344;2023-04-08T04:50:18;8.60;99.90
16485;DHT22;8353;47.856;12.344;2023-04-08T04:53:06;8.60;99.90
16485;DHT22;8353;47.856;12.344;2023-04-08T04:55:53;8.50;99.90
16485;DHT22;8353;47.856;12.344;2023-04-08T04:58:40;8.60;99.90
16485;DHT22;8353;47.856;12.344;2023-04-08T05:01:27;8.50;99.90
16485;DHT22;8353;47.856;12.344;2023-04-08T05:04:15;8.60;99.90
16485;DHT22;8353;47.856;12.344;2023-04-08T05:07:02;8.60;99.90
16485;DHT22;8353;47.856;12.344;2023-04-08T05:09:49;8.70;99.90
16485;DHT22;8353;47.856;12.344;2023-04-08T05:12:36;8.70;99.90
16485;DHT22;8353;47.856;12.344;2023-04-08T05:15:23;8.80;99.90
16485;DHT22;8353;47.856;12.344;2023-04-08T05:18:10;8.80;99.90
16485;DHT22;8353;47.856;12.344;2023-04-08T05:20:59;8.80;99.90
16485;DHT22;8353;47.856;12.344;2023-04-08T05:23:46;8.80;99.90
16485;DHT22;8353;47.856;12.344;2023-04-08T05:26:33;8.80;99.90
16485;DHT22;8353;47.856;12.344;2023-04-08T05:29:20;8.80;99.90
16485;DHT22;8353;47.856;12.344;2023-04-08T05:32:07;8.70;99.90
16485;DHT22;8353;47.856;12.344;2023-04-08T05:34:54;8.70;99.90
16485;DHT22;8353;47.856;12.344;2023-04-08T05:37:43;8.70;99.90
16485;DHT22;8353;47.856;12.344;2023-04-08T05:40:30;8.70;99.90
16485;DHT22;8353;47.856;12.344;2023-04-08T05:43:18;8.60;99.90
16485;DHT22;8353;47.856;12.344;2023-04-08T05:46:06;8.60;99.90
16485;DHT22;8353;47.856;12.344;2023-04-08T05:48:53;8.70;99.90
16485;DHT22;8353;47.856;12.344;2023-04-08T05:51:41;8.80;99.90
16485;DHT22;8353;47.856;12.344;2023-04-08T05:54:29;8.80;99.90
16485;DHT22;8353;47.856;12.344;2023-04-08T05:57:16;8.80;99.90
16485;DHT22;8353;47.856;12.344;2023-04-08T06:00:03;8.70;99.90
16485;DHT22;8353;47.856;12.344;2023-04-08T06:02:51;8.80;99.90
16485;DHT22;8353;47.856;12.344;2023-04-08T06:05:39;8.70;99.90
16485;DHT22;8353;47.856;12.344;2023-04-08T06:08:26;8.70;99.90
16485;DHT22;8353;47.856;12.344;2023-04-08T06:11:15;8.70;99.90
16485;DHT22;8353;47.856;12.344;2023-04-08T06:14:01;8.70;99.90
16485;DHT22;8353;47.856;12.344;2023-04-08T06:16:48;8.60;99.90
16485;DHT22;8353;47.856;12.344;2023-04-08T06:19:37;8.80;99.90
16485;DHT22;8353;47.856;12.344;2023-04-08T06:22:24;8.80;99.90
16485;DHT22;8353;47.856;12.344;2023-04-08T06:25:11;8.80;99.90
16485;DHT22;8353;47.856;12.344;2023-04-08T06:28:00;8.80;99.90
16485;DHT22;8353;47.856;12.344;2023-04-08T06:30:47;8.90;99.90
16485;DHT22;8353;47.856;12.344;2023-04-08T06:33:33;8.90;99.90
16485;DHT22;8353;47.856;12.344;2023-04-08T06:36:21;9.00;99.90
16485;DHT22;8353;47.856;12.344;2023-04-08T06:39:08;9.00;99.90
16485;DHT22;8353;47.856;12.344;2023-04-08T06:41:55;8.90;99.90
16485;DHT22;8353;47.856;12.344;2023-04-08T06:44:44;8.90;99.90
16485;DHT22;8353;47.856;12.344;2023-04-08T06:47:30;8.90;99.90
16485;DHT22;8353;47.856;12.344;2023-04-08T06:50:17;8.90;99.90
16485;DHT22;8353;47.856;12.344;2023-04-08T06:53:05;8.80;99.90
16485;DHT22;8353;47.856;12.344;2023-04-08T06:55:52;8.90;99.90
16485;DHT22;8353;47.856;12.344;2023-04-08T06:58:39;8.90;99.90
16485;DHT22;8353;47.856;12.344;2023-04-08T07:01:28;8.90;99.90
16485;DHT22;8353;47.856;12.344;2023-04-08T07:04:15;9.00;99.90
16485;DHT22;8353;47.856;12.344;2023-04-08T07:07:02;9.00;99.90
16485;DHT22;8353;47.856;12.344;2023-04-08T07:09:49;9.00;99.90
16485;DHT22;8353;47.856;12.344;2023-04-08T07:12:36;9.00;99.90
16485;DHT22;8353;47.856;12.344;2023-04-08T07:15:23;9.00;99.90
16485;DHT22;8353;47.856;12.344;2023-04-08T07:18:11;8.90;99.90
16485;DHT22;8353;47.856;12.344;2023-04-08T07:20:59;8.90;99.90
16485;DHT22;8353;47.856;12.344;2023-04-08T07:23:46;9.00;99.90
16485;DHT22;8353;47.856;12.344;2023-04-08T07:26:33;8.90;99.90
16485;DHT22;8353;47.856;12.344;2023-04-08T07:29:20;9.00;99.90
16485;DHT22;8353;47.856;12.344;2023-04-08T07:32:07;8.90;99.90
16485;DHT22;8353;47.856;12.344;2023-04-08T07:34:55;8.80;99.90
16485;DHT22;8353;47.856;12.344;2023-04-08T07:37:42;8.80;99.90
16485;DHT22;8353;47.856;12.344;2023-04-08T07:40:29;8.80;99.90
16485;DHT22;8353;47.856;12.344;2023-04-08T07:43:16;8.80;99.90
16485;DHT22;8353;47.856;12.344;2023-04-08T07:46:03;8.90;99.90
16485;DHT22;8353;47.856;12.344;2023-04-08T07:48:50;9.00;99.90
16485;DHT22;8353;47.856;12.344;2023-04-08T07:51:38;8.90;99.90
16485;DHT22;8353;47.856;12.344;2023-04-08T07:54:25;9.00;99.90
16485;DHT22;8353;47.856;12.344;2023-04-08T07:57:13;9.00;99.90
16485;DHT22;8353;47.856;12.344;2023-04-08T08:00:00;8.90;99.90
16485;DHT22;8353;47.856;12.344;2023-04-08T08:02:50;9.00;99.90
16485;DHT22;8353;47.856;12.344;2023-04-08T08:05:37;8.80;99.90
16485;DHT22;8353;47.856;12.344;2023-04-08T08:08:25;8.60;99.90
16485;DHT22;8353;47.856;12.344;2023-04-08T08:11:12;8.60;99.90
16485;DHT22;8353;47.856;12.344;2023-04-08T08:13:59;8.50;99.90
16485;DHT22;8353;47.856;12.344;2023-04-08T08:16:46;8.60;99.90
16485;DHT22;8353;47.856;12.344;2023-04-08T08:19:34;8.70;99.90
16485;DHT22;8353;47.856;12.344;2023-04-08T08:22:21;8.80;99.90
16485;DHT22;8353;47.856;12.344;2023-04-08T08:25:09;9.00;99.90
16485;DHT22;8353;47.856;12.344;2023-04-08T08:27:56;9.10;99.90
16485;DHT22;8353;47.856;12.344;2023-04-08T08:30:43;9.00;99.90
16485;DHT22;8353;47.856;12.344;2023-04-08T08:33:31;9.00;99.90
16485;DHT22;8353;47.856;12.344;2023-04-08T08:36:18;9.00;99.90
16485;DHT22;8353;47.856;12.344;2023-04-08T08:39:05;9.00;99.90
16485;DHT22;8353;47.856;12.344;2023-04-08T08:41:56;9.20;99.90
16485;DHT22;8353;47.856;12.344;2023-04-08T08:44:43;9.20;99.90
16485;DHT22;8353;47.856;12.344;2023-04-08T08:47:30;9.10;99.90
16485;DHT22;8353;47.856;12.344;2023-04-08T08:50:18;8.90;99.90
16485;DHT22;8353;47.856;12.344;2023-04-08T08:53:06;9.00;99.90
16485;DHT22;8353;47.856;12.344;2023-04-08T08:55:53;9.00;99.90
16485;DHT22;8353;47.856;12.344;2023-04-08T08:58:41;9.00;99.90
16485;DHT22;8353;47.856;12.344;2023-04-08T09:01:33;9.10;99.90
16485;DHT22;8353;47.856;12.344;2023-04-08T09:04:21;9.10;99.90
16485;DHT22;8353;47.856;12.344;2023-04-08T09:07:10;9.20;99.90
16485;DHT22;8353;47.856;12.344;2023-04-08T09:09:58;9.10;99.90
16485;DHT22;8353;47.856;12.344;2023-04-08T09:13:03;9.10;99.90
16485;DHT22;8353;47.856;12.344;2023-04-08T09:16:03;9.00;99.90
16485;DHT22;8353;47.856;12.344;2023-04-08T09:18:50;8.70;99.90
16485;DHT22;8353;47.856;12.344;2023-04-08T09:21:38;8.80;99.90
16485;DHT22;8353;47.856;12.344;2023-04-08T09:24:29;8.90;99.90
16485;DHT22;8353;47.856;12.344;2023-04-08T09:27:32;8.90;99.90
16485;DHT22;8353;47.856;12.344;2023-04-08T09:30:21;8.90;99.90
16485;DHT22;8353;47.856;12.344;2023-04-08T09:33:10;9.00;99.90
16485;DHT22;8353;47.856;12.344;2023-04-08T09:35:57;8.90;99.90
16485;DHT22;8353;47.856;12.344;2023-04-08T09:38:44;8.70;99.90
16485;DHT22;8353;47.856;12.344;2023-04-08T09:41:33;8.80;99.90
16485;DHT22;8353;47.856;12.344;2023-04-08T09:44:20;8.80;99.90
16485;DHT22;8353;47.856;12.344;2023-04-08T09:47:17;8.70;99.90
16485;DHT22;8353;47.856;12.344;2023-04-08T09:50:07;8.60;99.90
16485;DHT22;8353;47.856;12.344;2023-04-08T09:53:00;8.70;99.90
16485;DHT22;8353;47.856;12.344;2023-04-08T09:55:49;8.80;99.90
16485;DHT22;8353;47.856;12.344;2023-04-08T09:58:41;8.90;99.90
16485;DHT22;8353;47.856;12.344;2023-04-08T10:01:36;8.80;99.90
16485;DHT22;8353;47.856;12.344;2023-04-08T10:04:25;8.90;99.90
16485;DHT22;8353;47.856;12.344;2023-04-08T10:07:15;8.90;99.90
16485;DHT22;8353;47.856;12.344;2023-04-08T10:10:05;8.90;99.90
16485;DHT22;8353;47.856;12.344;2023-04-08T10:12:54;8.90;99.90
16485;DHT22;8353;47.856;12.344;2023-04-08T10:15:41;8.90;99.90
16485;DHT22;8353;47.856;12.344;2023-04-08T10:18:30;8.90;99.90
16485;DHT22;8353;47.856;12.344;2023-04-08T10:21:34;8.90;99.90
16485;DHT22;8353;47.856;12.344;2023-04-08T10:24:23;8.90;99.90
16485;DHT22;8353;47.856;12.344;2023-04-08T10:27:37;8.90;99.90
16485;DHT22;8353;47.856;12.344;2023-04-08T10:30:39;8.70;99.90
16485;DHT22;8353;47.856;12.344;2023-04-08T10:33:32;8.70;99.90
16485;DHT22;8353;47.856;12.344;2023-04-08T10:36:20;8.70;99.90
16485;DHT22;8353;47.856;12.344;2023-04-08T10:39:07;8.70;99.90
16485;DHT22;8353;47.856;12.344;2023-04-08T10:41:56;8.80;99.90
16485;DHT22;8353;47.856;12.344;2023-04-08T10:44:44;8.70;99.90
16485;DHT22;8353;47.856;12.344;2023-04-08T10:47:34;8.80;99.90
16485;DHT22;8353;47.856;12.344;2023-04-08T10:50:21;8.80;99.90
16485;DHT22;8353;47.856;12.344;2023-04-08T10:53:09;8.70;99.90
16485;DHT22;8353;47.856;12.344;2023-04-08T10:56:04;8.80;99.90
16485;DHT22;8353;47.856;12.344;2023-04-08T10:58:54;8.80;99.90
16485;DHT22;8353;47.856;12.344;2023-04-08T11:01:43;8.80;99.90
16485;DHT22;8353;47.856;12.344;2023-04-08T11:04:30;9.00;99.90
16485;DHT22;8353;47.856;12.344;2023-04-08T11:07:19;9.10;99.90
16485;DHT22;8353;47.856;12.344;2023-04-08T11:10:07;9.00;99.90
16485;DHT22;8353;47.856;12.344;2023-04-08T11:12:57;9.20;99.90
16485;DHT22;8353;47.856;12.344;2023-04-08T11:15:46;9.20;99.90
16485;DHT22;8353;47.856;12.344;2023-04-08T11:18:33;9.10;99.90
16485;DHT22;8353;47.856;12.344;2023-04-08T11:21:22;9.20;99.90
16485;DHT22;8353;47.856;12.344;2023-04-08T11:24:10;9.30;99.90
16485;DHT22;8353;47.856;12.344;2023-04-08T11:26:58;9.10;99.90
16485;DHT22;8353;47.856;12.344;2023-04-08T11:29:45;9.00;99.90
16485;DHT22;8353;47.856;12.344;2023-04-08T11:32:34;8.90;99.90
16485;DHT22;8353;47.856;12.344;2023-04-08T11:35:22;8.90;99.90
16485;DHT22;8353;47.856;12.344;2023-04-08T11:38:10;8.90;99.90
16485;DHT22;8353;47.856;12.344;2023-04-08T11:40:58;9.00;99.90
16485;DHT22;8353;47.856;12.344;2023-04-08T11:43:52;8.90;99.90
16485;DHT22;8353;47.856;12.344;2023-04-08T11:46:40;8.90;99.90
16485;DHT22;8353;47.856;12.344;2023-04-08T11:49:42;8.90;99.90
16485;DHT22;8353;47.856;12.344;2023-04-08T11:52:47;8.90;99.90
16485;DHT22;8353;47.856;12.344;2023-04-08T11:55:35;8.90;99.90
16485;DHT22;8353;47.856;12.344;2023-04-08T11:58:22;9.00;99.90
16485;DHT22;8353;47.856;12.344;2023-04-08T12:01:09;8.90;99.90
16485;DHT22;8353;47.856;12.344;2023-04-08T12:04:00;8.90;99.90
16485;DHT22;8353;47.856;12.344;2023-04-08T12:06:48;8.80;99.90
16485;DHT22;8353;47.856;12.344;2023-04-08T12:09:35;8.90;99.90
16485;DHT22;8353;47.856;12.344;2023-04-08T12:12:23;8.90;99.90
16485;DHT22;8353;47.856;12.344;2023-04-08T12:15:10;8.90;99.90
16485;DHT22;8353;47.856;12.344;2023-04-08T12:17:57;8.90;99.90
16485;DHT22;8353;47.856;12.344;2023-04-08T12:20:46;9.00;99.90
16485;DHT22;8353;47.856;12.344;2023-04-08T12:23:34;9.00;99.90
16485;DHT22;8353;47.856;12.344;2023-04-08T12:26:21;8.90;99.90
16485;DHT22;8353;47.856;12.344;2023-04-08T12:29:08;9.00;99.90
16485;DHT22;8353;47.856;12.344;2023-04-08T12:31:56;8.90;99.90
16485;DHT22;8353;47.856;12.344;2023-04-08T12:34:43;9.00;99.90
16485;DHT22;8353;47.856;12.344;2023-04-08T12:37:30;9.00;99.90
16485;DHT22;8353;47.856;12.344;2023-04-08T12:40:19;9.00;99.90
16485;DHT22;8353;47.856;12.344;2023-04-08T12:43:06;9.00;99.90
16485;DHT22;8353;47.856;12.344;2023-04-08T12:45:53;8.90;99.90
16485;DHT22;8353;47.856;12.344;2023-04-08T12:48:41;8.80;99.90
16485;DHT22;8353;47.856;12.344;2023-04-08T12:51:29;8.80;99.90
16485;DHT22;8353;47.856;12.344;2023-04-08T12:54:16;8.80;99.90
16485;DHT22;8353;47.856;12.344;2023-04-08T12:57:05;9.00;99.90
16485;DHT22;8353;47.856;12.344;2023-04-08T12:59:51;9.00;99.90
16485;DHT22;8353;47.856;12.344;2023-04-08T13:02:39;9.10;99.90
16485;DHT22;8353;47.856;12.344;2023-04-08T13:05:27;8.80;99.90
16485;DHT22;8353;47.856;12.344;2023-04-08T13:08:14;8.60;99.90
16485;DHT22;8353;47.856;12.344;2023-04-08T13:11:02;8.60;99.90
16485;DHT22;8353;47.856;12.344;2023-04-08T13:13:50;8.70;99.90
16485;DHT22;8353;47.856;12.344;2023-04-08T13:16:38;8.70;99.90
16485;DHT22;8353;47.856;12.344;2023-04-08T13:19:25;8.70;99.90
16485;DHT22;8353;47.856;12.344;2023-04-08T13:22:13;8.80;99.90
16485;DHT22;8353;47.856;12.344;2023-04-08T13:25:00;8.90;99.90
16485;DHT22;8353;47.856;12.344;2023-04-08T13:27:47;9.00;99.90
16485;DHT22;8353;47.856;12.344;2023-04-08T13:30:35;9.00;99.90
16485;DHT22;8353;47.856;12.344;2023-04-08T13:33:25;8.70;99.90
16485;DHT22;8353;47.856;12.344;2023-04-08T13:36:12;8.70;99.90
16485;DHT22;8353;47.856;12.344;2023-04-08T13:38:58;8.70;99.90
16485;DHT22;8353;47.856;12.344;2023-04-08T13:41:45;8.80;99.90
16485;DHT22;8353;47.856;12.344;2023-04-08T13:44:33;8.70;99.90
16485;DHT22;8353;47.856;12.344;2023-04-08T13:47:21;8.80;99.90
16485;DHT22;8353;47.856;12.344;2023-04-08T13:50:09;8.70;99.90
16485;DHT22;8353;47.856;12.344;2023-04-08T13:52:56;8.80;99.90
16485;DHT22;8353;47.856;12.344;2023-04-08T13:55:43;8.70;99.90
16485;DHT22;8353;47.856;12.344;2023-04-08T13:58:31;8.50;99.90
16485;DHT22;8353;47.856;12.344;2023-04-08T14:01:18;8.40;99.90
16485;DHT22;8353;47.856;12.344;2023-04-08T14:04:06;8.40;99.90
16485;DHT22;8353;47.856;12.344;2023-04-08T14:06:54;8.40;99.90
16485;DHT22;8353;47.856;12.344;2023-04-08T14:09:42;8.30;99.90
16485;DHT22;8353;47.856;12.344;2023-04-08T14:12:29;8.00;99.90
16485;DHT22;8353;47.856;12.344;2023-04-08T14:15:16;8.00;99.90
16485;DHT22;8353;47.856;12.344;2023-04-08T14:18:03;8.10;99.90
16485;DHT22;8353;47.856;12.344;2023-04-08T14:20:52;8.10;99.90
16485;DHT22;8353;47.856;12.344;2023-04-08T14:23:38;8.10;99.90
16485;DHT22;8353;47.856;12.344;2023-04-08T14:26:25;8.20;99.90
16485;DHT22;8353;47.856;12.344;2023-04-08T14:29:12;8.50;99.90
16485;DHT22;8353;47.856;12.344;2023-04-08T14:31:59;8.50;99.90
16485;DHT22;8353;47.856;12.344;2023-04-08T14:34:46;8.50;99.90
16485;DHT22;8353;47.856;12.344;2023-04-08T14:37:34;8.60;99.90
16485;DHT22;8353;47.856;12.344;2023-04-08T14:40:23;8.60;99.90
16485;DHT22;8353;47.856;12.344;2023-04-08T14:43:10;8.70;99.90
16485;DHT22;8353;47.856;12.344;2023-04-08T14:45:57;8.70;99.90
16485;DHT22;8353;47.856;12.344;2023-04-08T14:48:44;8.70;99.90
16485;DHT22;8353;47.856;12.344;2023-04-08T14:51:31;8.70;99.90
16485;DHT22;8353;47.856;12.344;2023-04-08T14:54:19;8.60;99.90
16485;DHT22;8353;47.856;12.344;2023-04-08T14:57:06;8.60;99.90
16485;DHT22;8353;47.856;12.344;2023-04-08T14:59:53;8.40;99.90
16485;DHT22;8353;47.856;12.344;2023-04-08T15:02:40;8.20;99.90
16485;DHT22;8353;47.856;12.344;2023-04-08T15:05:26;8.30;99.90
16485;DHT22;8353;47.856;12.344;2023-04-08T15:08:13;8.30;99.90
16485;DHT22;8353;47.856;12.344;2023-04-08T15:11:02;8.50;99.90
16485;DHT22;8353;47.856;12.344;2023-04-08T15:13:49;8.40;99.90
16485;DHT22;8353;47.856;12.344;2023-04-08T15:16:36;8.30;99.90
16485;DHT22;8353;47.856;12.344;2023-04-08T15:19:22;8.30;99.90
16485;DHT22;8353;47.856;12.344;2023-04-08T15:22:10;8.30;99.90
16485;DHT22;8353;47.856;12.344;2023-04-08T15:24:57;8.40;99.90
16485;DHT22;8353;47.856;12.344;2023-04-08T15:27:46;8.50;99.90
16485;DHT22;8353;47.856;12.344;2023-04-08T15:30:34;8.50;99.90
16485;DHT22;8353;47.856;12.344;2023-04-08T15:33:21;8.40;99.90
16485;DHT22;8353;47.856;12.344;2023-04-08T15:36:08;8.30;99.90
16485;DHT22;8353;47.856;12.344;2023-04-08T15:38:55;8.40;99.90
16485;DHT22;8353;47.856;12.344;2023-04-08T15:41:42;8.50;99.90
16485;DHT22;8353;47.856;12.344;2023-04-08T15:44:31;8.40;99.90
16485;DHT22;8353;47.856;12.344;2023-04-08T15:47:19;8.40;99.90
16485;DHT22;8353;47.856;12.344;2023-04-08T15:50:06;8.50;99.90
16485;DHT22;8353;47.856;12.344;2023-04-08T15:52:54;8.60;99.90
16485;DHT22;8353;47.856;12.344;2023-04-08T15:55:41;8.60;99.90
16485;DHT22;8353;47.856;12.344;2023-04-08T15:58:29;8.50;99.90
16485;DHT22;8353;47.856;12.344;2023-04-08T16:01:17;8.40;99.90
16485;DHT22;8353;47.856;12.344;2023-04-08T16:04:05;8.30;99.90
16485;DHT22;8353;47.856;12.344;2023-04-08T16:06:52;8.40;99.90
16485;DHT22;8353;47.856;12.344;2023-04-08T16:09:39;8.50;99.90
16485;DHT22;8353;47.856;12.344;2023-04-08T16:12:26;8.50;99.90
16485;DHT22;8353;47.856;12.344;2023-04-08T16:15:13;8.60;99.90
16485;DHT22;8353;47.856;12.344;2023-04-08T16:18:02;8.50;99.90
16485;DHT22;8353;47.856;12.344;2023-04-08T16:20:51;8.40;99.90
16485;DHT22;8353;47.856;12.344;2023-04-08T16:23:38;8.40;99.90
16485;DHT22;8353;47.856;12.344;2023-04-08T16:26:24;8.40;99.90
16485;DHT22;8353;47.856;12.344;2023-04-08T16:29:13;8.20;99.90
16485;DHT22;8353;47.856;12.344;2023-04-08T16:32:00;8.30;99.90
16485;DHT22;8353;47.856;12.344;2023-04-08T16:34:48;8.40;99.90
16485;DHT22;8353;47.856;12.344;2023-04-08T16:37:35;8.40;99.90
16485;DHT22;8353;47.856;12.344;2023-04-08T16:40:22;8.40;99.90
16485;DHT22;8353;47.856;12.344;2023-04-08T16:43:09;8.40;99.90
16485;DHT22;8353;47.856;12.344;2023-04-08T16:45:58;8.40;99.90
16485;DHT22;8353;47.856;12.344;2023-04-08T16:48:45;8.40;99.90
16485;DHT22;8353;47.856;12.344;2023-04-08T16:51:33;8.30;99.90
16485;DHT22;8353;47.856;12.344;2023-04-08T16:54:20;8.30;99.90
16485;DHT22;8353;47.856;12.344;2023-04-08T16:57:07;8.30;99.90
16485;DHT22;8353;47.856;12.344;2023-04-08T16:59:54;8.40;99.90
16485;DHT22;8353;47.856;12.344;2023-04-08T17:02:43;8.50;99.90
16485;DHT22;8353;47.856;12.344;2023-04-08T17:05:30;8.50;99.90
16485;DHT22;8353;47.856;12.344;2023-04-08T17:08:18;8.50;99.90
16485;DHT22;8353;47.856;12.344;2023-04-08T17:11:09;8.40;99.90
16485;DHT22;8353;47.856;12.344;2023-04-08T17:13:56;8.40;99.90
16485;DHT22;8353;47.856;12.344;2023-04-08T17:16:43;8.50;99.90
16485;DHT22;8353;47.856;12.344;2023-04-08T17:19:30;8.50;99.90
16485;DHT22;8353;47.856;12.344;2023-04-08T17:22:17;8.50;99.90
16485;DHT22;8353;47.856;12.344;2023-04-08T17:25:09;8.50;99.90
16485;DHT22;8353;47.856;12.344;2023-04-08T17:27:56;8.50;99.90
16485;DHT22;8353;47.856;12.344;2023-04-08T17:30:43;8.40;99.90
16485;DHT22;8353;47.856;12.344;2023-04-08T17:33:31;8.50;99.90
16485;DHT22;8353;47.856;12.344;2023-04-08T17:36:20;8.40;99.90
16485;DHT22;8353;47.856;12.344;2023-04-08T17:39:07;8.30;99.90
16485;DHT22;8353;47.856;12.344;2023-04-08T17:41:57;8.20;99.90
16485;DHT22;8353;47.856;12.344;2023-04-08T17:44:44;8.10;99.90
16485;DHT22;8353;47.856;12.344;2023-04-08T17:47:31;8.00;99.90
16485;DHT22;8353;47.856;12.344;2023-04-08T17:50:18;8.10;99.90
16485;DHT22;8353;47.856;12.344;2023-04-08T17:53:05;8.10;99.90
16485;DHT22;8353;47.856;12.344;2023-04-08T17:55:57;8.20;99.90
16485;DHT22;8353;47.856;12.344;2023-04-08T17:58:45;8.20;99.90